Time;durP1;ratioP1;P1;durP2;ratioP2;P2;SDS_P1;SDS_P2;PMS_P1;PMS_P2;Temp;Humidity;BMP_temperature;BMP_pressure;BME280_temperature;BME280_humidity;BME280_pressure;Samples;Min_cycle;Max_cycle;Signal;HPM_P1;HPM_P2
2023/05/11 00:02:04;;;;;;;9.20;5.80;;;;;;;13.24;34.56;100387.87;104465;1257;60620;-61
2023/05/11 00:04:31;;;;;;;8.10;5.30;;;;;;;13.25;34.69;100393.48;104320;1255;74426;-61
2023/05/11 00:06:59;;;;;;;6.40;5.10;;;;;;;13.23;34.62;100390.38;104587;1257;70479;-62
2023/05/11 00:09:27;;;;;;;8.30;5.90;;;;;;;13.22;34.98;100395.19;104494;1254;72656;-61
2023/05/11 00:11:54;;;;;;;7.50;5.00;;;;;;;13.20;34.76;100395.08;104557;1257;60530;-61
2023/05/11 00:14:21;;;;;;;8.40;5.80;;;;;;;13.17;34.99;100390.64;104473;1254;61938;-61
2023/05/11 00:16:48;;;;;;;7.80;5.40;;;;;;;13.12;35.19;100393.65;104329;1273;73474;-61
2023/05/11 00:19:15;;;;;;;9.20;5.30;;;;;;;13.06;35.35;100392.84;104355;1258;69821;-61
2023/05/11 00:21:42;;;;;;;6.90;5.40;;;;;;;13.04;35.16;100390.98;104563;1265;72903;-61
2023/05/11 00:24:10;;;;;;;8.90;5.10;;;;;;;13.02;35.38;100395.30;104385;1254;60466;-61
2023/05/11 00:26:37;;;;;;;7.90;5.70;;;;;;;13.01;35.43;100394.63;104278;1253;61199;-60
2023/05/11 00:29:05;;;;;;;6.70;4.80;;;;;;;12.98;35.22;100391.21;104478;1267;73234;-60
2023/05/11 00:31:32;;;;;;;7.50;5.20;;;;;;;12.95;34.88;100391.89;104518;1257;69093;-60
2023/05/11 00:33:59;;;;;;;10.20;5.70;;;;;;;12.95;35.19;100393.67;104288;1256;73421;-60
2023/05/11 00:36:27;;;;;;;10.80;5.30;;;;;;;12.92;35.40;100391.66;104688;1254;59758;-61
2023/05/11 00:38:54;;;;;;;8.00;5.50;;;;;;;12.91;35.11;100389.08;104391;1266;60736;-60
2023/05/11 00:41:21;;;;;;;7.40;5.00;;;;;;;12.91;34.99;100392.23;104656;1252;75229;-61
2023/05/11 00:43:49;;;;;;;;;;;;;;;12.92;35.12;100393.78;104501;1253;70132;-61
2023/05/11 00:46:16;;;;;;;5.90;4.10;;;;;;;12.90;36.11;100392.09;104344;1257;73603;-61
2023/05/11 00:48:43;;;;;;;6.60;4.80;;;;;;;12.84;35.74;100394.27;104467;1257;60547;-60
2023/05/11 00:51:11;;;;;;;6.40;4.70;;;;;;;12.80;35.89;100391.25;104387;1255;61364;-61
2023/05/11 00:53:38;;;;;;;8.00;4.50;;;;;;;12.79;35.76;100396.56;104410;1254;75448;-60
2023/05/11 00:56:05;;;;;;;6.10;4.90;;;;;;;12.79;35.46;100394.11;104352;1257;69870;-60
2023/05/11 00:58:32;;;;;;;6.10;4.70;;;;;;;12.78;35.62;100395.40;104481;1252;73027;-61
2023/05/11 01:00:59;;;;;;;9.00;5.00;;;;;;;12.78;35.82;100395.38;104369;1261;60556;-60
2023/05/11 01:03:26;;;;;;;6.20;4.80;;;;;;;12.78;35.77;100394.14;104567;1257;60820;-61
2023/05/11 01:06:10;;;;;;;7.60;4.70;;;;;;;12.78;35.71;100395.58;104466;1264;74739;-60
2023/05/11 01:08:45;;;;;;;6.90;4.80;;;;;;;12.74;35.96;100395.55;104491;1257;71205;-60
2023/05/11 01:11:36;;;;;;;7.80;4.60;;;;;;;12.71;36.15;100395.31;104413;1251;73363;-61
2023/05/11 01:14:07;;;;;;;5.80;5.10;;;;;;;12.68;36.23;100395.26;104627;1254;60577;-60
2023/05/11 01:16:36;;;;;;;7.50;5.00;;;;;;;12.65;35.95;100397.14;104447;1264;60944;-61
2023/05/11 01:19:10;;;;;;;7.60;4.80;;;;;;;12.64;35.85;100395.05;104500;1256;74049;-62
2023/05/11 01:21:37;;;;;;;6.30;4.70;;;;;;;12.63;36.06;100397.55;104344;1254;69672;-61
2023/05/11 01:24:25;;;;;;;6.10;4.80;;;;;;;12.62;35.82;100400.41;104454;1258;72614;-61
2023/05/11 01:27:02;;;;;;;8.80;4.70;;;;;;;12.62;35.90;100398.83;104490;1256;60517;-60
2023/05/11 01:29:32;;;;;;;6.20;4.30;;;;;;;12.62;36.04;100397.77;104315;1273;61148;-61
2023/05/11 01:31:59;;;;;;;5.00;4.40;;;;;;;12.60;36.16;100401.20;104356;1266;76396;-60
2023/05/11 01:34:29;;;;;;;7.20;4.70;;;;;;;12.64;36.05;100401.59;104488;1257;70966;-60
2023/05/11 01:36:57;;;;;;;6.00;4.70;;;;;;;12.65;36.01;100402.58;104321;1257;73823;-61
2023/05/11 01:39:48;;;;;;;8.10;5.00;;;;;;;12.63;36.13;100401.10;104406;1270;60015;-61
2023/05/11 01:42:18;;;;;;;5.60;4.20;;;;;;;12.61;36.24;100401.34;104468;1258;60819;-61
2023/05/11 01:44:46;;;;;;;5.30;4.20;;;;;;;12.59;36.38;100399.28;104432;1254;74682;-61
2023/05/11 01:47:13;;;;;;;6.30;4.00;;;;;;;12.62;36.07;100402.52;104344;1269;71362;-60
2023/05/11 01:49:40;;;;;;;6.60;4.30;;;;;;;12.64;36.31;100401.56;104347;1260;72119;-60
2023/05/11 01:52:07;;;;;;;4.20;3.80;;;;;;;12.64;36.15;100398.76;104561;1258;60530;-60
2023/05/11 01:54:35;;;;;;;5.40;3.90;;;;;;;12.65;36.52;100401.55;104591;1258;60505;-60
2023/05/11 01:57:02;;;;;;;5.80;4.10;;;;;;;12.63;36.30;100400.38;104016;1261;73831;-61
2023/05/11 01:59:29;;;;;;;5.60;4.20;;;;;;;12.64;36.30;100400.86;104324;1255;70800;-62
2023/05/11 02:01:56;;;;;;;5.00;3.90;;;;;;;12.65;36.49;100400.66;104402;1256;72370;-61
2023/05/11 02:04:24;;;;;;;5.20;3.30;;;;;;;12.64;36.58;100398.39;104448;1260;60641;-61
2023/05/11 02:06:52;;;;;;;5.40;3.70;;;;;;;12.66;36.65;100399.36;104499;1255;60551;-62
2023/05/11 02:09:19;;;;;;;;;;;;;;;12.70;36.39;100399.93;104366;1267;73783;-61
2023/05/11 02:11:46;;;;;;;4.40;3.10;;;;;;;12.73;36.60;100398.54;104360;1269;70938;-61
2023/05/11 02:14:16;;;;;;;5.50;3.80;;;;;;;12.72;36.18;100400.05;104457;1255;72524;-61
2023/05/11 02:16:43;;;;;;;4.60;3.80;;;;;;;12.74;36.05;100400.83;104365;1254;62080;-61
2023/05/11 02:19:11;;;;;;;8.20;4.30;;;;;;;12.77;36.14;100403.34;104126;1267;60576;-61
2023/05/11 02:21:38;;;;;;;;;;;;;;;12.82;36.63;100407.73;104427;1255;74519;-61
2023/05/11 02:24:05;;;;;;;4.40;3.00;;;;;;;12.87;36.99;100411.77;104471;1256;69418;-61
2023/05/11 02:26:33;;;;;;;3.30;3.00;;;;;;;12.87;36.84;100411.40;104864;1253;73603;-61
2023/05/11 02:29:00;;;;;;;4.20;3.20;;;;;;;12.94;36.54;100415.52;104500;1252;60531;-59
2023/05/11 02:31:28;;;;;;;3.90;3.40;;;;;;;12.99;36.70;100414.93;104377;1259;62542;-60
2023/05/11 02:33:59;;;;;;;6.90;3.70;;;;;;;13.07;36.71;100417.79;104645;1253;74091;-61
2023/05/11 02:36:27;;;;;;;7.80;3.90;;;;;;;13.13;36.86;100415.98;104549;1264;68985;-61
2023/05/11 02:39:01;;;;;;;4.50;3.70;;;;;;;13.15;36.54;100417.65;104508;1257;72921;-61
2023/05/11 02:41:29;;;;;;;5.30;3.70;;;;;;;13.21;36.36;100418.97;104357;1254;60671;-61
2023/05/11 02:43:59;;;;;;;6.40;4.10;;;;;;;13.26;36.30;100424.23;104330;1258;60433;-61
2023/05/11 02:46:28;;;;;;;6.30;4.10;;;;;;;13.33;36.30;100423.27;104423;1256;73780;-61
2023/05/11 02:48:59;;;;;;;5.40;4.20;;;;;;;13.42;36.20;100420.80;107599;1252;70588;-62
2023/05/11 02:51:36;;;;;;;6.90;4.40;;;;;;;13.51;36.42;100424.11;107733;1253;73972;-61
2023/05/11 02:54:06;;;;;;;7.30;5.20;;;;;;;13.59;36.36;100422.53;108136;1253;60457;-61
2023/05/11 02:56:34;;;;;;;5.60;4.40;;;;;;;13.65;36.47;100425.63;108141;1253;60367;-59
2023/05/11 02:59:01;;;;;;;6.60;5.00;;;;;;;13.71;35.89;100428.01;108284;1252;75667;-60
2023/05/11 03:01:28;;;;;;;8.50;5.40;;;;;;;13.74;36.09;100428.23;108317;1252;71658;-63
2023/05/11 03:03:57;;;;;;;6.80;4.80;;;;;;;13.78;36.51;100429.83;105230;1255;72132;-62
2023/05/11 03:06:25;;;;;;;8.20;5.50;;;;;;;13.81;36.49;100429.86;104438;1270;60556;-62
2023/05/11 03:08:53;;;;;;;6.60;5.20;;;;;;;13.88;36.39;100431.16;104575;1253;63260;-61
2023/05/11 03:11:20;;;;;;;7.70;5.60;;;;;;;13.92;36.28;100434.52;104441;1252;74564;-61
2023/05/11 03:13:48;;;;;;;8.70;5.10;;;;;;;13.97;36.40;100437.95;104643;1256;69636;-62
2023/05/11 03:16:16;;;;;;;7.00;5.90;;;;;;;14.03;36.41;100437.52;104299;1267;72379;-63
2023/05/11 03:18:48;;;;;;;7.30;5.80;;;;;;;14.11;36.15;100434.20;104421;1260;60605;-62
2023/05/11 03:21:16;;;;;;;10.00;5.90;;;;;;;14.17;35.99;100435.16;104529;1253;60890;-63
2023/05/11 03:23:43;;;;;;;7.90;5.10;;;;;;;14.25;35.89;100434.27;104362;1253;74251;-61
2023/05/11 03:26:10;;;;;;;6.50;5.50;;;;;;;14.33;35.83;100443.77;104207;1260;69067;-63
2023/05/11 03:28:39;;;;;;;8.20;5.30;;;;;;;14.37;35.74;100439.16;104310;1257;73066;-61
2023/05/11 03:31:07;;;;;;;6.10;4.80;;;;;;;14.51;35.77;100440.64;104473;1252;60518;-61
2023/05/11 03:33:34;;;;;;;7.10;5.30;;;;;;;14.63;35.54;100442.94;104362;1273;60515;-62
2023/05/11 03:36:02;;;;;;;10.30;5.30;;;;;;;14.73;35.38;100441.40;104393;1260;73335;-61
2023/05/11 03:38:29;;;;;;;6.30;5.00;;;;;;;14.78;35.41;100439.27;104325;1258;70470;-62
2023/05/11 03:40:57;;;;;;;6.50;4.70;;;;;;;14.87;35.33;100437.56;104463;1258;73429;-62
2023/05/11 03:43:25;;;;;;;6.10;4.80;;;;;;;15.01;35.26;100446.98;104255;1257;60560;-62
2023/05/11 03:45:54;;;;;;;5.50;4.70;;;;;;;15.08;35.61;100453.89;104443;1253;62672;-64
2023/05/11 03:48:21;;;;;;;7.60;5.30;;;;;;;15.16;36.13;100451.35;104425;1256;74167;-61
2023/05/11 03:50:49;;;;;;;8.20;5.70;;;;;;;15.23;36.45;100452.95;104604;1253;69708;-62
2023/05/11 03:53:17;;;;;;;7.00;5.50;;;;;;;15.29;36.65;100451.61;104339;1259;73425;-62
2023/05/11 03:55:44;;;;;;;8.50;5.20;;;;;;;15.37;36.44;100457.42;104496;1253;60546;-62
2023/05/11 03:58:11;;;;;;;7.90;4.90;;;;;;;15.48;36.47;100456.14;104607;1252;60449;-62
2023/05/11 04:00:39;;;;;;;7.00;5.70;;;;;;;15.59;36.17;100452.93;104629;1253;75819;-62
2023/05/11 04:03:09;;;;;;;;;;;;;;;15.63;36.49;100457.70;104395;1260;72004;-62
2023/05/11 04:05:37;;;;;;;7.00;4.80;;;;;;;15.74;36.56;100458.58;104356;1256;72733;-62
2023/05/11 04:08:07;;;;;;;6.50;4.30;;;;;;;15.80;36.33;100459.84;104379;1254;61342;-60
2023/05/11 04:10:34;;;;;;;5.00;4.40;;;;;;;15.89;36.88;100461.34;104376;1253;60644;-60
2023/05/11 04:13:01;;;;;;;9.90;4.90;;;;;;;15.98;36.68;100463.33;108112;1252;74466;-61
2023/05/11 04:15:29;;;;;;;7.60;5.70;;;;;;;16.08;37.05;100462.63;106746;1253;69688;-61
2023/05/11 04:17:56;;;;;;;7.40;5.30;;;;;;;16.14;36.60;100470.47;104784;1252;72427;-60
2023/05/11 04:20:24;;;;;;;5.70;4.10;;;;;;;16.21;35.51;100469.40;105085;1257;60565;-59
2023/05/11 04:22:51;;;;;;;6.90;5.10;;;;;;;16.32;35.46;100470.58;104803;1252;60917;-59
2023/05/11 04:25:18;;;;;;;7.80;4.60;;;;;;;16.41;35.42;100474.33;104311;1256;74208;-60
2023/05/11 04:27:45;;;;;;;5.80;5.10;;;;;;;16.48;35.37;100472.55;104594;1256;69877;-60
2023/05/11 04:30:12;;;;;;;6.90;5.10;;;;;;;16.53;35.95;100474.54;104468;1253;73145;-60
2023/05/11 04:32:39;;;;;;;8.40;5.40;;;;;;;16.58;35.65;100475.86;104323;1256;60624;-60
2023/05/11 04:35:08;;;;;;;9.00;5.20;;;;;;;16.59;35.76;100476.92;104365;1253;60633;-59
2023/05/11 04:37:37;;;;;;;8.70;5.80;;;;;;;16.62;35.64;100479.59;104694;1253;74367;-62
2023/05/11 04:40:06;;;;;;;6.70;5.10;;;;;;;16.65;35.68;100475.14;104587;1257;72281;-60
2023/05/11 04:42:38;;;;;;;6.50;5.20;;;;;;;16.68;35.59;100479.39;104478;1258;73087;-59
2023/05/11 04:45:10;;;;;;;7.20;4.90;;;;;;;16.69;36.02;100483.41;104366;1267;60389;-59
2023/05/11 04:47:37;;;;;;;6.10;4.80;;;;;;;16.70;35.92;100481.59;104391;1263;62997;-60
2023/05/11 04:50:06;;;;;;;6.30;5.00;;;;;;;16.74;35.62;100481.55;104618;1257;74333;-59
2023/05/11 04:52:34;;;;;;;8.80;6.20;;;;;;;16.72;35.47;100484.84;104499;1254;69554;-60
2023/05/11 04:55:01;;;;;;;7.00;5.00;;;;;;;16.66;35.67;100480.91;104333;1254;74433;-60
2023/05/11 04:57:28;;;;;;;8.10;5.50;;;;;;;16.67;35.66;100480.35;104399;1253;61107;-60
2023/05/11 04:59:56;;;;;;;5.70;4.60;;;;;;;16.70;35.27;100480.34;104329;1266;60742;-59
2023/05/11 05:02:23;;;;;;;7.20;4.90;;;;;;;16.76;34.98;100480.77;104322;1251;76769;-60
2023/05/11 05:04:50;;;;;;;4.20;3.70;;;;;;;16.85;34.78;100482.57;104322;1254;70017;-60
2023/05/11 05:07:17;;;;;;;6.20;4.50;;;;;;;16.91;34.34;100483.30;104371;1266;74256;-61
2023/05/11 05:09:44;;;;;;;6.30;4.20;;;;;;;17.02;34.41;100486.78;104412;1268;60841;-60
2023/05/11 05:12:13;;;;;;;7.40;4.60;;;;;;;17.08;34.50;100485.87;104286;1251;60634;-60
2023/05/11 05:14:42;;;;;;;7.10;4.60;;;;;;;17.07;34.51;100487.16;104345;1257;74152;-61
2023/05/11 05:17:09;;;;;;;4.60;3.90;;;;;;;17.11;34.17;100485.35;104450;1258;70186;-61
2023/05/11 05:19:36;;;;;;;4.30;3.90;;;;;;;17.22;34.21;100490.27;104459;1257;72484;-60
2023/05/11 05:22:04;;;;;;;9.20;4.20;;;;;;;17.29;34.02;100488.97;104391;1251;63105;-61
2023/05/11 05:24:32;;;;;;;5.40;4.10;;;;;;;17.32;33.91;100491.98;104312;1256;60517;-60
2023/05/11 05:26:59;;;;;;;4.80;3.80;;;;;;;17.39;33.93;100489.66;104347;1254;73679;-61
2023/05/11 05:29:26;;;;;;;5.60;3.90;;;;;;;17.42;33.97;100489.81;104434;1271;69719;-60
2023/05/11 05:31:53;;;;;;;3.20;2.90;;;;;;;17.53;33.75;100491.15;104450;1258;72800;-61
2023/05/11 05:34:21;;;;;;;4.30;3.20;;;;;;;17.63;33.41;100487.20;104303;1258;60556;-69
2023/05/11 05:36:49;;;;;;;6.80;3.30;;;;;;;17.70;33.23;100484.98;104303;1272;61390;-67
2023/05/11 05:39:16;;;;;;;3.80;3.40;;;;;;;17.78;33.13;100487.57;104410;1251;74868;-67
2023/05/11 05:41:43;;;;;;;2.90;2.70;;;;;;;17.85;33.20;100485.73;104412;1258;70526;-65
2023/05/11 05:44:11;;;;;;;3.90;3.30;;;;;;;17.89;33.10;100491.14;104421;1257;73631;-67
2023/05/11 05:46:38;;;;;;;2.90;2.60;;;;;;;17.96;32.82;100493.06;104381;1266;60646;-65
2023/05/11 05:49:06;;;;;;;3.20;2.90;;;;;;;18.03;32.44;100491.77;104370;1264;61075;-66
2023/05/11 05:51:35;;;;;;;3.80;2.90;;;;;;;18.10;32.51;100492.75;104371;1257;74194;-65
2023/05/11 05:54:02;;;;;;;7.60;2.60;;;;;;;18.17;32.66;100493.77;104321;1258;69850;-67
2023/05/11 05:56:31;;;;;;;3.70;2.70;;;;;;;18.23;32.69;100496.06;104387;1255;73099;-64
2023/05/11 05:58:58;;;;;;;4.80;3.00;;;;;;;18.29;32.68;100494.94;104286;1252;62897;-64
2023/05/11 06:01:26;;;;;;;4.30;2.60;;;;;;;18.39;32.70;100495.58;104500;1251;62226;-66
2023/05/11 06:03:55;;;;;;;6.50;2.60;;;;;;;18.51;32.54;100493.97;104437;1257;76572;-65
2023/05/11 06:06:23;;;;;;;3.90;2.70;;;;;;;18.60;31.69;100489.87;104900;1253;71496;-64
2023/05/11 06:08:50;;;;;;;4.20;2.50;;;;;;;18.69;31.33;100494.23;104368;1256;73475;-64
2023/05/11 06:11:17;;;;;;;5.70;2.40;;;;;;;18.83;31.36;100495.33;104323;1254;61074;-64
2023/05/11 06:13:45;;;;;;;3.30;2.50;;;;;;;18.94;31.37;100493.27;104402;1262;60662;-64
2023/05/11 06:16:12;;;;;;;3.60;2.10;;;;;;;19.05;31.39;100491.66;104351;1253;75562;-65
2023/05/11 06:18:39;;;;;;;2.40;2.20;;;;;;;19.13;31.36;100487.73;104343;1251;70110;-66
2023/05/11 06:21:06;;;;;;;2.30;2.10;;;;;;;19.22;30.42;100486.98;104235;1256;75176;-62
2023/05/11 06:23:34;;;;;;;2.30;2.10;;;;;;;19.32;29.75;100488.82;104439;1266;60968;-62
2023/05/11 06:26:01;;;;;;;2.30;2.10;;;;;;;19.41;30.05;100485.72;104735;1256;60634;-61
2023/05/11 06:28:30;;;;;;;3.10;2.40;;;;;;;19.52;29.98;100488.91;104356;1253;74962;-61
2023/05/11 06:31:02;;;;;;;3.00;2.00;;;;;;;19.64;29.44;100488.10;104471;1257;70588;-63
2023/05/11 06:33:32;;;;;;;2.20;2.00;;;;;;;19.81;29.47;100485.23;104307;1257;75115;-61
2023/05/11 06:36:06;;;;;;;2.30;1.90;;;;;;;19.96;29.16;100488.13;104523;1255;60428;-60
2023/05/11 06:38:34;;;;;;;2.90;1.90;;;;;;;20.03;28.97;100485.48;104580;1252;60898;-60
2023/05/11 06:41:01;;;;;;;2.80;1.90;;;;;;;20.11;28.99;100486.21;104810;1254;75826;-60
2023/05/11 06:43:29;;;;;;;3.70;2.00;;;;;;;20.18;28.83;100483.22;104701;1251;70672;-62
2023/05/11 06:45:57;;;;;;;2.60;2.20;;;;;;;20.25;28.79;100480.47;104585;1257;72325;-61
2023/05/11 06:48:28;;;;;;;2.60;1.80;;;;;;;20.29;28.34;100479.56;104668;1254;61084;-62
2023/05/11 06:50:57;;;;;;;3.60;1.70;;;;;;;20.39;28.52;100480.36;104517;1251;60666;-61
2023/05/11 06:53:24;;;;;;;2.70;2.20;;;;;;;20.50;28.21;100486.14;104671;1257;73040;-66
2023/05/11 06:55:53;;;;;;;3.10;2.00;;;;;;;20.60;27.79;100481.52;105070;1257;70093;-61
2023/05/11 06:58:20;;;;;;;4.40;1.80;;;;;;;20.69;27.91;100482.88;105091;1253;72507;-61
2023/05/11 07:00:47;;;;;;;2.90;1.80;;;;;;;20.74;27.44;100480.03;104965;1254;61342;-61
2023/05/11 07:05:42;;;;;;;4.50;2.20;;;;;;;19.96;28.85;100483.50;102138;1289;601018;-62
2023/05/11 07:08:09;;;;;;;4.00;1.90;;;;;;;20.81;27.24;100475.05;103596;1271;60319;-61
2023/05/11 07:10:36;;;;;;;2.50;1.90;;;;;;;20.85;26.95;100479.93;104305;1260;59940;-61
2023/05/11 07:13:04;;;;;;;5.60;2.00;;;;;;;20.92;26.71;100476.97;104423;1255;71986;-61
2023/05/11 07:15:31;;;;;;;5.10;2.00;;;;;;;20.99;26.75;100476.45;104503;1269;69068;-61
2023/05/11 07:18:00;;;;;;;2.50;1.90;;;;;;;21.10;26.85;100477.19;104468;1262;72468;-61
2023/05/11 07:20:27;;;;;;;2.50;2.10;;;;;;;21.19;27.12;100473.16;104412;1259;190497;-62
2023/05/11 07:22:58;;;;;;;3.50;2.00;;;;;;;21.25;26.85;100475.73;104302;1252;60401;-61
2023/05/11 07:25:25;;;;;;;3.60;2.40;;;;;;;21.38;26.55;100477.88;104353;1257;73578;-61
2023/05/11 07:27:52;;;;;;;2.00;1.80;;;;;;;21.45;26.10;100476.58;104431;1259;70785;-61
2023/05/11 07:30:19;;;;;;;2.90;2.20;;;;;;;21.57;26.12;100475.90;104371;1253;73172;-61
2023/05/11 07:32:48;;;;;;;3.20;1.90;;;;;;;21.64;25.97;100473.05;104352;1257;59871;-62
2023/05/11 07:35:16;;;;;;;2.80;1.90;;;;;;;21.70;25.68;100470.77;104436;1262;62614;-63
2023/05/11 07:37:43;;;;;;;3.80;2.20;;;;;;;21.77;25.08;100465.65;104414;1256;72943;-61
2023/05/11 07:40:10;;;;;;;6.20;2.80;;;;;;;21.78;25.16;100465.39;104350;1267;69398;-66
2023/05/11 07:42:38;;;;;;;3.90;2.10;;;;;;;21.84;25.24;100469.38;104360;1255;72522;-66
2023/05/11 07:45:06;;;;;;;2.10;1.90;;;;;;;21.89;25.33;100467.75;104492;1257;60302;-65
2023/05/11 07:47:33;;;;;;;3.20;2.10;;;;;;;21.95;24.83;100461.70;104426;1259;61523;-65
2023/05/11 07:50:03;;;;;;;3.50;2.20;;;;;;;22.05;24.71;100464.38;104410;1251;72971;-68
2023/05/11 07:52:30;;;;;;;;;;;;;;;22.09;24.38;100464.42;104710;1251;69300;-66
2023/05/11 07:54:57;;;;;;;5.30;2.10;;;;;;;22.17;24.71;100456.84;104635;1260;73971;-67
2023/05/11 07:57:24;;;;;;;2.40;2.00;;;;;;;22.18;24.30;100456.02;104356;1268;62453;-67
2023/05/11 07:59:52;;;;;;;2.60;2.40;;;;;;;22.20;24.05;100458.04;104301;1253;60164;-66
2023/05/11 08:02:19;;;;;;;3.00;2.30;;;;;;;22.25;24.03;100456.59;104422;1256;73498;-66
2023/05/11 08:04:46;;;;;;;2.80;1.80;;;;;;;22.31;23.71;100455.59;104385;1257;70886;-67
2023/05/11 08:07:13;;;;;;;2.40;2.20;;;;;;;22.33;23.72;100457.76;104343;1271;74092;-67
2023/05/11 08:09:40;;;;;;;3.00;2.00;;;;;;;22.39;23.23;100451.52;104385;1272;59934;-67
2023/05/11 08:12:08;;;;;;;2.90;1.70;;;;;;;22.48;23.71;100448.83;104664;1251;60164;-66
2023/05/11 08:14:36;;;;;;;2.00;1.80;;;;;;;22.56;23.51;100449.32;104414;1256;73626;-67
2023/05/11 08:17:04;;;;;;;1.80;1.50;;;;;;;22.61;23.14;100444.27;105328;1255;72110;-67
2023/05/11 08:19:31;;;;;;;1.90;1.60;;;;;;;22.64;22.31;100448.30;104565;1259;73974;-67
2023/05/11 08:21:59;;;;;;;1.40;1.30;;;;;;;22.69;22.91;100444.70;104919;1259;59996;-65
2023/05/11 08:24:26;;;;;;;1.40;1.20;;;;;;;22.76;22.60;100443.57;104749;1259;60495;-64
2023/05/11 08:26:54;;;;;;;1.50;1.20;;;;;;;22.76;22.47;100451.09;105043;1254;73369;-63
2023/05/11 08:29:21;;;;;;;1.50;1.40;;;;;;;22.70;22.37;100448.94;104616;1259;70752;-64
2023/05/11 08:31:48;;;;;;;1.70;1.40;;;;;;;22.71;22.06;100450.05;104735;1261;73728;-64
2023/05/11 08:34:15;;;;;;;1.50;1.20;;;;;;;22.81;22.18;100446.60;104517;1260;60883;-62
2023/05/11 08:36:46;;;;;;;1.50;1.40;;;;;;;22.91;22.56;100452.55;104630;1260;60223;-63
2023/05/11 08:39:14;;;;;;;2.00;1.20;;;;;;;23.06;22.42;100447.75;104592;1258;73896;-63
2023/05/11 08:41:59;;;;;;;1.60;1.50;;;;;;;23.01;20.59;100439.22;104942;1251;71326;-63
2023/05/11 08:44:26;;;;;;;1.30;1.20;;;;;;;23.02;20.72;100440.98;104889;1260;73529;-62
2023/05/11 08:46:53;;;;;;;1.40;1.20;;;;;;;22.96;21.62;100437.69;105052;1252;61254;-62
2023/05/11 08:49:37;;;;;;;1.60;1.10;;;;;;;22.93;21.68;100446.17;104843;1262;60326;-62
2023/05/11 08:52:04;;;;;;;1.80;1.40;;;;;;;22.93;22.08;100452.23;104892;1260;73306;-64
2023/05/11 08:54:33;;;;;;;1.40;1.30;;;;;;;22.99;22.07;100451.51;104610;1259;70955;-62
2023/05/11 08:57:01;;;;;;;2.70;1.50;;;;;;;23.00;21.59;100452.17;104361;1253;73171;-65
2023/05/11 08:59:28;;;;;;;3.00;1.40;;;;;;;22.99;22.28;100460.27;104674;1254;60866;-63
2023/05/11 09:01:56;;;;;;;1.70;1.40;;;;;;;22.97;22.12;100459.22;104624;1257;60670;-62
2023/05/11 09:04:23;;;;;;;5.70;1.50;;;;;;;22.92;21.18;100454.05;104614;1254;72836;-63
2023/05/11 09:06:50;;;;;;;2.20;1.30;;;;;;;22.89;21.89;100452.73;104640;1254;68753;-63
2023/05/11 09:09:17;;;;;;;1.80;1.70;;;;;;;22.89;21.82;100450.89;104806;1257;73038;-64
2023/05/11 09:11:44;;;;;;;3.60;1.60;;;;;;;22.88;21.57;100451.02;104746;1257;61771;-62
2023/05/11 09:14:12;;;;;;;4.10;1.60;;;;;;;22.88;21.78;100447.25;104573;1269;61331;-63
2023/05/11 09:16:39;;;;;;;1.40;1.30;;;;;;;23.00;21.97;100445.60;104692;1258;73581;-62
2023/05/11 09:19:06;;;;;;;1.70;1.60;;;;;;;23.12;21.80;100444.27;105135;1254;70873;-62
2023/05/11 09:21:34;;;;;;;2.90;1.50;;;;;;;23.20;21.64;100443.62;104358;1259;72838;-61
2023/05/11 09:24:01;;;;;;;4.20;1.80;;;;;;;23.13;21.73;100436.98;104497;1259;60250;-62
2023/05/11 09:26:31;;;;;;;1.90;1.70;;;;;;;23.04;21.10;100433.11;104500;1259;60459;-62
2023/05/11 09:28:58;;;;;;;2.00;1.60;;;;;;;23.05;21.08;100426.95;104528;1265;73192;-62
2023/05/11 09:31:45;;;;;;;1.70;1.40;;;;;;;23.15;21.22;100428.46;104525;1258;69936;-62
2023/05/11 09:34:19;;;;;;;2.50;1.60;;;;;;;23.11;20.53;100423.25;104321;1255;73668;-61
2023/05/11 09:36:51;;;;;;;1.90;1.70;;;;;;;23.08;21.00;100423.69;104372;1266;61332;-61
2023/05/11 09:39:33;;;;;;;2.60;1.70;;;;;;;23.21;21.35;100422.79;104574;1262;60682;-61
2023/05/11 09:42:17;;;;;;;1.70;1.50;;;;;;;23.30;20.89;100414.29;104812;1260;72593;-61
2023/05/11 09:44:45;;;;;;;2.10;1.60;;;;;;;23.42;20.81;100410.23;104626;1259;70795;-61
2023/05/11 09:47:16;;;;;;;1.90;1.70;;;;;;;23.54;21.32;100407.48;104656;1264;72672;-63
2023/05/11 09:49:44;;;;;;;2.30;1.50;;;;;;;23.64;20.65;100404.69;104490;1266;60162;-62
2023/05/11 09:52:13;;;;;;;4.10;1.70;;;;;;;23.77;20.74;100403.00;104731;1264;61014;-61
2023/05/11 09:54:48;;;;;;;1.30;1.20;;;;;;;23.89;20.64;100400.19;104921;1254;73519;-62
2023/05/11 09:57:25;;;;;;;1.90;1.70;;;;;;;23.94;20.32;100397.30;104405;1271;70393;-63
2023/05/11 09:59:53;;;;;;;;;;;;;;;23.87;20.64;100399.27;104457;1259;74643;-62
2023/05/11 10:02:24;;;;;;;1.60;1.30;;;;;;;23.73;20.42;100399.02;104581;1261;61436;-62
2023/05/11 10:04:53;;;;;;;2.30;1.20;;;;;;;23.64;20.47;100395.71;104423;1261;61298;-62
2023/05/11 10:07:28;;;;;;;1.70;1.60;;;;;;;23.60;20.17;100395.71;104455;1254;74976;-62
2023/05/11 10:10:00;;;;;;;1.50;1.40;;;;;;;23.50;20.41;100395.42;104393;1258;68757;-63
2023/05/11 10:12:27;;;;;;;1.50;1.40;;;;;;;23.46;20.49;100397.00;104437;1257;72866;-65
2023/05/11 10:15:03;;;;;;;3.00;1.50;;;;;;;23.44;20.52;100398.63;104782;1259;60376;-63
2023/05/11 10:17:31;;;;;;;2.10;1.30;;;;;;;23.47;20.79;100395.92;104313;1264;60678;-63
2023/05/11 10:19:58;;;;;;;1.80;1.60;;;;;;;23.46;20.90;100397.20;104541;1257;73081;-63
2023/05/11 10:22:27;;;;;;;1.80;1.50;;;;;;;23.46;20.50;100395.79;104686;1260;70305;-67
2023/05/11 10:24:58;;;;;;;1.70;1.50;;;;;;;23.42;20.70;100392.71;104854;1254;73542;-62
2023/05/11 10:27:25;;;;;;;1.40;1.30;;;;;;;23.38;20.86;100387.92;104668;1257;60485;-61
2023/05/11 10:29:52;;;;;;;2.60;1.50;;;;;;;23.35;20.59;100389.19;104391;1254;60492;-63
2023/05/11 10:32:19;;;;;;;2.00;1.50;;;;;;;23.34;20.40;100385.71;105008;1253;74326;-62
2023/05/11 10:34:49;;;;;;;1.80;1.30;;;;;;;23.41;20.63;100380.33;104744;1254;69673;-62
2023/05/11 10:37:16;;;;;;;1.90;1.50;;;;;;;23.49;20.68;100378.55;104237;1261;73258;-62
2023/05/11 10:39:44;;;;;;;1.50;1.40;;;;;;;23.60;20.48;100377.61;104649;1264;60572;-61
2023/05/11 10:42:44;;;;;;;3.50;1.30;;;;;;;23.65;20.20;100377.58;104585;1255;59697;-62
2023/05/11 10:45:25;;;;;;;1.40;1.30;;;;;;;23.63;20.17;100376.33;105042;1258;73350;-61
2023/05/11 10:48:40;;;;;;;1.50;1.40;;;;;;;23.63;20.39;100375.90;104336;1257;72229;-62
2023/05/11 10:51:46;;;;;;;1.50;1.40;;;;;;;23.75;20.55;100371.70;103985;1264;72657;-63
2023/05/11 10:54:19;;;;;;;2.40;1.60;;;;;;;23.88;20.07;100364.54;103882;1261;60432;-62
2023/05/11 10:56:49;;;;;;;2.00;1.60;;;;;;;23.98;19.87;100362.91;104067;1266;60693;-62
2023/05/11 10:59:32;;;;;;;1.70;1.60;;;;;;;24.15;19.86;100359.96;104433;1261;73353;-64
2023/05/11 11:02:01;;;;;;;3.00;1.40;;;;;;;24.20;19.45;100360.23;104335;1254;68675;-62
2023/05/11 11:04:46;;;;;;;3.10;1.60;;;;;;;24.23;19.75;100360.16;104793;1257;74961;-62
2023/05/11 11:07:17;;;;;;;1.50;1.40;;;;;;;24.28;18.91;100359.20;104390;1267;60859;-61
2023/05/11 11:09:53;;;;;;;3.50;1.60;;;;;;;24.25;19.88;100363.96;104981;1260;60526;-61
2023/05/11 11:12:21;;;;;;;2.00;1.80;;;;;;;24.17;19.65;100363.39;104507;1253;75642;-62
2023/05/11 11:14:57;;;;;;;2.80;1.40;;;;;;;24.15;19.55;100356.23;105641;1253;72052;-61
2023/05/11 11:17:27;;;;;;;2.30;1.40;;;;;;;24.21;19.81;100361.95;108191;1252;73973;-63
2023/05/11 11:19:56;;;;;;;3.30;1.40;;;;;;;24.27;19.67;100359.83;108077;1254;61566;-63
2023/05/11 11:22:45;;;;;;;1.40;1.30;;;;;;;24.35;19.85;100359.86;108181;1253;60774;-63
2023/05/11 11:25:14;;;;;;;1.00;1.00;;;;;;;24.41;19.77;100357.96;107643;1252;73934;-62
2023/05/11 11:27:48;;;;;;;2.90;1.40;;;;;;;24.48;19.97;100358.45;105167;1254;72753;-62
2023/05/11 11:30:19;;;;;;;2.80;1.40;;;;;;;24.52;19.62;100352.64;104395;1255;75498;-62
2023/05/11 11:32:47;;;;;;;3.90;1.30;;;;;;;24.59;20.08;100350.20;104286;1258;61098;-62